createdAt,value
2018-07-17T00:02:01.578Z,15.60
2018-07-17T00:04:29.935Z,11.57
2018-07-17T00:06:58.415Z,13.80
2018-07-17T00:09:26.722Z,15.57
2018-07-17T00:11:55.247Z,15.60
2018-07-17T00:14:23.666Z,6.20
2018-07-17T00:16:51.975Z,5.93
2018-07-17T00:19:20.305Z,9.57
2018-07-17T00:21:48.623Z,11.50
2018-07-17T00:24:16.928Z,14.87
2018-07-17T00:26:45.255Z,12.30
2018-07-17T00:29:13.695Z,7.77
2018-07-17T00:31:42.030Z,16.87
2018-07-17T00:34:10.335Z,7.70
2018-07-17T00:36:38.645Z,8.90
2018-07-17T00:39:07.251Z,6.20
2018-07-17T00:41:35.326Z,6.23
2018-07-17T00:44:03.645Z,6.27
2018-07-17T00:46:31.954Z,6.67
2018-07-17T00:49:00.261Z,6.60
2018-07-17T00:51:28.558Z,8.03
2018-07-17T00:53:56.895Z,7.70
2018-07-17T00:56:25.210Z,6.23
2018-07-17T00:58:53.618Z,7.20
2018-07-17T01:01:27.305Z,6.80
2018-07-17T01:04:00.895Z,6.70
2018-07-17T01:06:34.402Z,6.73
2018-07-17T01:09:08.175Z,7.50
2018-07-17T01:11:41.862Z,10.23
2018-07-17T01:14:20.221Z,13.20
2018-07-17T01:16:48.711Z,14.67
2018-07-17T01:19:17.113Z,19.27
2018-07-17T01:21:45.405Z,17.57
2018-07-17T01:24:13.735Z,23.47
2018-07-17T01:26:42.531Z,26.43
2018-07-17T01:29:10.858Z,23.03
2018-07-17T01:31:39.467Z,18.37
2018-07-17T01:34:07.766Z,17.47
2018-07-17T01:36:36.074Z,17.90
2018-07-17T01:39:04.666Z,19.20
2018-07-17T01:41:32.983Z,36.97
2018-07-17T01:44:01.587Z,30.40
2018-07-17T01:46:29.908Z,27.80
2018-07-17T01:48:58.223Z,19.73
2018-07-17T01:51:26.944Z,26.43
2018-07-17T01:53:55.434Z,29.27
2018-07-17T01:56:24.053Z,27.57
2018-07-17T01:58:52.670Z,26.73
2018-07-17T02:01:21.330Z,27.30
2018-07-17T02:03:49.626Z,24.83
2018-07-17T02:06:17.942Z,26.40
2018-07-17T02:08:46.574Z,24.47
2018-07-17T02:11:15.408Z,24.17
2018-07-17T02:13:44.043Z,21.97
2018-07-17T02:16:12.570Z,28.50
2018-07-17T02:18:40.944Z,23.37
2018-07-17T02:21:09.044Z,26.47
2018-07-17T02:23:37.322Z,21.57
2018-07-17T02:26:05.649Z,23.70
2018-07-17T02:28:34.523Z,22.23
2018-07-17T02:31:02.986Z,19.70
2018-07-17T02:33:31.351Z,21.43
2018-07-17T02:35:59.711Z,21.70
2018-07-17T02:38:28.383Z,21.13
2018-07-17T02:40:56.681Z,20.07
2018-07-17T02:43:25.112Z,19.50
2018-07-17T02:45:53.496Z,19.47
2018-07-17T02:48:22.251Z,18.80
2018-07-17T02:50:50.528Z,19.60
2018-07-17T02:53:18.859Z,18.07
2018-07-17T02:55:47.163Z,19.17
2018-07-17T02:58:15.495Z,16.70
2018-07-17T03:00:43.564Z,16.80
2018-07-17T03:03:12.171Z,17.47
2018-07-17T03:05:40.491Z,15.63
2018-07-17T03:08:08.890Z,16.80
2018-07-17T03:10:37.469Z,15.57
2018-07-17T03:13:05.839Z,14.97
2018-07-17T03:15:34.471Z,15.00
2018-07-17T03:18:02.813Z,14.90
2018-07-17T03:20:31.817Z,14.20
2018-07-17T03:23:00.142Z,13.73
2018-07-17T03:25:28.852Z,13.77
2018-07-17T03:27:57.128Z,13.67
2018-07-17T03:30:25.731Z,13.70
2018-07-17T03:32:54.030Z,13.63
2018-07-17T03:35:22.376Z,12.93
2018-07-17T03:37:50.708Z,12.90
2018-07-17T03:40:19.022Z,12.10
2018-07-17T03:42:47.312Z,12.07
2018-07-17T03:45:15.923Z,10.57
2018-07-17T03:47:44.260Z,11.80
2018-07-17T03:50:12.741Z,11.70
2018-07-17T03:52:41.031Z,11.00
2018-07-17T03:55:09.367Z,10.23
2018-07-17T03:57:37.682Z,11.33
2018-07-17T04:00:06.540Z,10.83
2018-07-17T04:02:35.249Z,11.57
2018-07-17T04:05:03.544Z,10.37
2018-07-17T04:07:32.166Z,10.07
2018-07-17T04:10:00.474Z,10.10
2018-07-17T04:12:29.153Z,10.07
2018-07-17T04:14:57.458Z,9.77
2018-07-17T04:17:25.814Z,10.00
2018-07-17T04:19:54.523Z,9.47
2018-07-17T04:22:22.801Z,8.80
2018-07-17T04:24:51.126Z,10.10
2018-07-17T04:27:19.612Z,9.73
2018-07-17T04:29:47.993Z,8.13
2018-07-17T04:32:16.250Z,9.33
2018-07-17T04:34:44.559Z,8.97
2018-07-17T04:37:12.876Z,7.80
2018-07-17T04:39:41.211Z,7.83
2018-07-17T04:42:09.275Z,8.13
2018-07-17T04:44:37.573Z,7.47
2018-07-17T04:47:06.068Z,7.83
2018-07-17T04:49:34.368Z,7.43
2018-07-17T04:52:02.708Z,7.50
2018-07-17T04:54:31.439Z,6.83
2018-07-17T04:56:59.739Z,7.93
2018-07-17T04:59:27.797Z,7.60
2018-07-17T05:01:55.887Z,9.07
2018-07-17T05:04:24.198Z,7.90
2018-07-17T05:06:52.498Z,15.50
2018-07-17T05:09:20.814Z,18.13
2018-07-17T05:11:48.863Z,24.13
2018-07-17T05:14:17.459Z,21.37
2018-07-17T05:16:45.527Z,23.63
2018-07-17T05:19:13.589Z,21.33
2018-07-17T05:21:41.935Z,20.67
2018-07-17T05:24:10.276Z,19.03
2018-07-17T05:26:38.918Z,18.03
2018-07-17T05:29:07.271Z,14.93
2018-07-17T05:31:35.595Z,16.80
2018-07-17T05:34:03.914Z,16.03
2018-07-17T05:36:32.247Z,19.10
2018-07-17T05:39:00.542Z,15.30
2018-07-17T05:41:29.316Z,15.83
2018-07-17T05:43:57.651Z,14.07
2018-07-17T05:46:25.955Z,14.60
2018-07-17T05:48:54.282Z,14.07
2018-07-17T05:51:22.571Z,14.30
2018-07-17T05:53:50.892Z,13.30
2018-07-17T05:56:19.219Z,13.40
2018-07-17T05:58:47.530Z,14.17
2018-07-17T06:01:15.851Z,14.67
2018-07-17T06:03:44.188Z,15.00
2018-07-17T06:06:12.467Z,12.93
2018-07-17T06:08:40.793Z,14.50
2018-07-17T06:11:09.118Z,14.37
2018-07-17T06:13:37.615Z,14.00
2018-07-17T06:16:05.682Z,20.17
2018-07-17T06:18:34.011Z,15.87
2018-07-17T06:21:02.388Z,16.03
2018-07-17T06:23:30.723Z,12.43
2018-07-17T06:25:59.055Z,13.33
2018-07-17T06:28:27.411Z,21.60
2018-07-17T06:30:55.739Z,39.43
2018-07-17T06:33:24.031Z,29.67
2018-07-17T06:35:52.248Z,22.87
2018-07-17T06:38:20.881Z,26.60
2018-07-17T06:40:49.667Z,17.60
2018-07-17T06:43:18.310Z,18.90
2018-07-17T06:45:46.653Z,42.47
2018-07-17T06:48:15.003Z,38.97
2018-07-17T06:50:43.655Z,35.87
2018-07-17T06:53:11.934Z,45.00
2018-07-17T06:55:40.243Z,41.53
2018-07-17T06:58:08.875Z,42.60
2018-07-17T07:00:37.167Z,38.63
2018-07-17T07:03:05.582Z,38.87
2018-07-17T07:05:34.152Z,36.30
2018-07-17T07:08:02.466Z,29.90
2018-07-17T07:10:30.607Z,36.80
2018-07-17T07:12:58.883Z,43.17
2018-07-17T07:15:29.019Z,80.17
2018-07-17T07:17:57.348Z,47.33
2018-07-17T07:20:25.667Z,68.17
2018-07-17T07:22:53.975Z,66.33
2018-07-17T07:25:22.473Z,62.67
2018-07-17T07:27:50.776Z,56.77
2018-07-17T07:30:19.163Z,53.83
2018-07-17T07:32:47.463Z,54.97
2018-07-17T07:35:15.911Z,46.53
2018-07-17T07:37:44.243Z,37.83
2018-07-17T07:40:12.690Z,43.67
2018-07-17T07:42:41.076Z,42.87
2018-07-17T07:45:09.500Z,48.40
2018-07-17T07:47:37.823Z,54.57
2018-07-17T07:50:06.415Z,67.43
2018-07-17T07:52:34.738Z,61.30
2018-07-17T07:55:03.121Z,57.87
2018-07-17T07:57:31.672Z,49.53
2018-07-17T07:59:59.960Z,47.40
2018-07-17T08:02:28.582Z,44.63
2018-07-17T08:04:56.972Z,46.33
2018-07-17T08:07:25.321Z,53.20
2018-07-17T08:09:53.645Z,54.87
2018-07-17T08:12:21.990Z,54.17
2018-07-17T08:14:50.665Z,68.60
2018-07-17T08:17:18.981Z,56.37
2018-07-17T08:19:47.310Z,58.87
2018-07-17T08:22:15.710Z,56.20
2018-07-17T08:24:44.107Z,55.53
2018-07-17T08:27:12.451Z,52.80
2018-07-17T08:29:40.787Z,50.83
2018-07-17T08:32:09.170Z,51.23
2018-07-17T08:34:37.505Z,46.27
2018-07-17T08:37:05.839Z,49.57
2018-07-17T08:39:34.162Z,45.40
2018-07-17T08:42:02.837Z,45.23
2018-07-17T08:44:31.265Z,42.60
2018-07-17T08:46:59.626Z,42.50
2018-07-17T08:49:27.966Z,39.17
2018-07-17T08:51:58.133Z,40.70
2018-07-17T08:54:26.517Z,41.43
2018-07-17T08:56:54.891Z,36.23
2018-07-17T08:59:23.474Z,32.03
2018-07-17T09:01:51.789Z,34.10
2018-07-17T09:04:20.107Z,30.83
2018-07-17T09:06:48.423Z,42.27
2018-07-17T09:09:16.767Z,43.10
2018-07-17T09:11:45.073Z,45.67
2018-07-17T09:14:13.567Z,51.63
2018-07-17T09:16:41.870Z,53.63
2018-07-17T09:19:10.539Z,53.23
2018-07-17T09:21:38.893Z,46.27
2018-07-17T09:24:07.186Z,42.77
2018-07-17T09:26:35.541Z,46.13
2018-07-17T09:29:03.854Z,40.40
2018-07-17T09:31:32.162Z,39.57
2018-07-17T09:34:00.583Z,38.80
2018-07-17T09:36:28.929Z,40.90
2018-07-17T09:38:57.612Z,38.73
2018-07-17T09:41:25.915Z,37.80
2018-07-17T09:43:54.266Z,38.03
2018-07-17T09:46:22.615Z,35.33
2018-07-17T09:48:50.948Z,40.87
2018-07-17T09:51:19.681Z,37.63
2018-07-17T09:53:48.012Z,36.77
2018-07-17T09:56:16.330Z,39.17
2018-07-17T09:58:44.638Z,34.73
2018-07-17T10:01:18.510Z,37.23
2018-07-17T10:03:46.830Z,35.57
2018-07-17T10:06:15.181Z,49.80
2018-07-17T10:08:43.581Z,97.83
2018-07-17T10:11:11.920Z,78.77
2018-07-17T10:13:39.989Z,48.07
2018-07-17T10:16:08.284Z,49.80
2018-07-17T10:18:36.654Z,47.30
2018-07-17T10:21:04.721Z,47.00
2018-07-17T10:23:33.107Z,45.80
2018-07-17T10:26:01.206Z,44.40
2018-07-17T10:28:29.547Z,43.37
2018-07-17T10:30:57.883Z,43.37
2018-07-17T10:33:26.206Z,42.30
2018-07-17T10:35:54.296Z,40.27
2018-07-17T10:38:23.235Z,49.83
2018-07-17T10:40:51.570Z,51.80
2018-07-17T10:43:20.006Z,50.67
2018-07-17T10:45:48.345Z,45.13
2018-07-17T10:48:16.679Z,45.33
2018-07-17T10:50:45.012Z,43.10
2018-07-17T10:53:13.349Z,47.03
2018-07-17T10:55:42.015Z,49.90
2018-07-17T10:58:10.344Z,42.47
2018-07-17T11:00:39.701Z,43.33
2018-07-17T11:03:08.219Z,41.07
2018-07-17T11:05:36.644Z,40.50
2018-07-17T11:08:04.967Z,40.70
2018-07-17T11:10:33.317Z,43.37
2018-07-17T11:13:01.881Z,38.17
2018-07-17T11:15:30.230Z,43.03
2018-07-17T11:17:58.652Z,41.57
2018-07-17T11:20:27.050Z,42.93
2018-07-17T11:22:55.393Z,49.93
2018-07-17T11:25:23.719Z,36.43
2018-07-17T11:27:52.044Z,38.73
2018-07-17T11:30:20.375Z,42.97
2018-07-17T11:32:48.719Z,38.20
2018-07-17T11:35:17.027Z,42.23
2018-07-17T11:37:45.368Z,38.20
2018-07-17T11:40:13.715Z,36.40
2018-07-17T11:42:42.336Z,37.13
2018-07-17T11:45:10.689Z,37.60
2018-07-17T11:47:39.061Z,37.30
2018-07-17T11:50:07.761Z,33.50
2018-07-17T11:52:36.106Z,32.43
2018-07-17T11:55:04.835Z,35.87
2018-07-17T11:57:33.151Z,32.83
2018-07-17T12:00:01.480Z,35.97
2018-07-17T12:02:29.811Z,27.90
2018-07-17T12:04:58.226Z,37.70
2018-07-17T12:07:26.624Z,41.47
2018-07-17T12:09:55.260Z,56.27
2018-07-17T12:12:23.559Z,50.77
2018-07-17T12:14:51.878Z,56.57
2018-07-17T12:17:20.182Z,47.77
2018-07-17T12:19:48.561Z,37.93
2018-07-17T12:22:16.811Z,38.57
2018-07-17T12:24:45.395Z,38.57
2018-07-17T12:27:13.746Z,38.00
2018-07-17T12:29:42.039Z,32.70
2018-07-17T12:32:10.162Z,35.60
2018-07-17T12:34:38.461Z,37.07
2018-07-17T12:37:06.770Z,33.13
2018-07-17T12:39:35.099Z,30.70
2018-07-17T12:42:03.404Z,27.67
2018-07-17T12:44:31.754Z,31.80
2018-07-17T12:47:00.049Z,29.60
2018-07-17T12:49:28.787Z,29.23
2018-07-17T12:51:57.116Z,36.87
2018-07-17T12:54:25.433Z,44.40
2018-07-17T12:56:54.027Z,42.93
2018-07-17T12:59:22.340Z,41.53
2018-07-17T13:01:51.027Z,37.63
2018-07-17T13:04:19.353Z,38.70
2018-07-17T13:06:47.648Z,35.23
2018-07-17T13:09:15.974Z,33.67
2018-07-17T13:11:44.282Z,38.70
2018-07-17T13:14:12.574Z,35.17
2018-07-17T13:16:40.885Z,34.63
2018-07-17T13:19:09.222Z,38.67
2018-07-17T13:21:37.555Z,47.43
2018-07-17T13:24:05.875Z,48.97
2018-07-17T13:26:34.194Z,50.63
2018-07-17T13:29:02.814Z,47.53
2018-07-17T13:31:31.139Z,42.90
2018-07-17T13:33:59.465Z,42.00
2018-07-17T13:36:27.902Z,44.20
2018-07-17T13:38:56.223Z,41.47
2018-07-17T13:41:24.707Z,44.67
2018-07-17T13:43:53.308Z,41.00
2018-07-17T13:46:21.606Z,41.17
2018-07-17T13:48:49.924Z,40.97
2018-07-17T13:51:18.268Z,60.83
2018-07-17T13:53:46.560Z,59.27
2018-07-17T13:56:14.982Z,46.27
2018-07-17T13:58:43.203Z,42.90
2018-07-17T14:01:11.519Z,44.93
2018-07-17T14:03:39.834Z,42.53
2018-07-17T14:06:08.441Z,53.43
2018-07-17T14:08:36.792Z,41.23
2018-07-17T14:11:05.083Z,37.03
2018-07-17T14:13:33.759Z,43.00
2018-07-17T14:16:02.065Z,39.03
2018-07-17T14:18:30.715Z,37.40
2018-07-17T14:20:59.011Z,36.57
2018-07-17T14:23:27.326Z,38.17
2018-07-17T14:25:55.619Z,49.50
2018-07-17T14:28:23.941Z,39.57
2018-07-17T14:30:52.248Z,33.63
2018-07-17T14:33:20.581Z,33.97
2018-07-17T14:35:49.128Z,32.10
2018-07-17T14:38:17.638Z,36.07
2018-07-17T14:40:45.947Z,30.17
2018-07-17T14:43:14.531Z,29.33
2018-07-17T14:45:42.831Z,32.57
2018-07-17T14:48:11.166Z,27.73
2018-07-17T14:50:39.484Z,29.20
2018-07-17T14:53:07.811Z,28.97
2018-07-17T14:55:36.112Z,33.70
2018-07-17T14:58:04.423Z,39.20
2018-07-17T15:00:32.743Z,35.77
2018-07-17T15:03:01.059Z,32.67
2018-07-17T15:05:29.360Z,34.50
2018-07-17T15:07:57.679Z,30.53
2018-07-17T15:10:25.994Z,24.60
2018-07-17T15:12:54.318Z,12.57
2018-07-17T15:15:22.659Z,14.17
2018-07-17T15:17:50.972Z,7.50
2018-07-17T15:20:19.299Z,9.70
2018-07-17T15:22:47.611Z,10.07
2018-07-17T15:25:15.949Z,4.57
2018-07-17T15:27:44.263Z,7.97
2018-07-17T15:30:12.693Z,7.80
2018-07-17T15:32:40.982Z,6.63
2018-07-17T15:35:09.334Z,8.80
2018-07-17T15:37:37.609Z,5.00
2018-07-17T15:40:05.929Z,13.93
2018-07-17T15:42:34.320Z,15.90
2018-07-17T15:45:02.619Z,11.73
2018-07-17T15:47:30.960Z,5.40
2018-07-17T15:49:59.247Z,8.70
2018-07-17T15:52:27.644Z,6.83
2018-07-17T15:54:55.937Z,5.70
2018-07-17T15:57:24.267Z,7.37
2018-07-17T15:59:52.615Z,9.57
2018-07-17T16:02:21.011Z,3.97
2018-07-17T16:04:49.315Z,9.87
2018-07-17T16:07:17.621Z,17.90
2018-07-17T16:09:45.957Z,26.50
2018-07-17T16:12:14.263Z,16.67
2018-07-17T16:14:42.961Z,17.97
2018-07-17T16:17:11.283Z,11.27
2018-07-17T16:19:39.630Z,5.77
2018-07-17T16:22:07.981Z,7.40
2018-07-17T16:24:36.330Z,6.70
2018-07-17T16:27:04.741Z,8.87
2018-07-17T16:29:33.059Z,3.37
2018-07-17T16:32:01.347Z,5.70
2018-07-17T16:34:29.660Z,6.07
2018-07-17T16:36:57.993Z,9.60
2018-07-17T16:39:26.314Z,9.47
2018-07-17T16:41:54.619Z,4.33
2018-07-17T16:44:22.920Z,5.90
2018-07-17T16:46:51.249Z,7.13
2018-07-17T16:49:19.576Z,5.83
2018-07-17T16:51:48.036Z,4.50
2018-07-17T16:54:16.760Z,5.10
2018-07-17T16:56:45.056Z,13.63
2018-07-17T16:59:13.796Z,22.77
2018-07-17T17:01:42.114Z,18.13
2018-07-17T17:04:10.451Z,9.30
2018-07-17T17:06:38.767Z,12.77
2018-07-17T17:09:10.077Z,15.83
2018-07-17T17:11:38.392Z,14.20
2018-07-17T17:14:06.722Z,13.50
2018-07-17T17:16:35.008Z,12.17
2018-07-17T17:19:03.352Z,11.23
2018-07-17T17:21:31.640Z,11.97
2018-07-17T17:24:00.369Z,8.60
2018-07-17T17:26:28.551Z,10.93
2018-07-17T17:28:56.664Z,7.47
2018-07-17T17:31:24.918Z,9.30
2018-07-17T17:33:53.250Z,4.30
2018-07-17T17:36:21.610Z,5.17
2018-07-17T17:38:49.926Z,11.37
2018-07-17T17:41:17.994Z,28.47
2018-07-17T17:43:46.303Z,14.43
2018-07-17T17:46:14.603Z,7.57
2018-07-17T17:48:42.931Z,6.77
2018-07-17T17:51:10.985Z,7.23
2018-07-17T17:53:39.278Z,7.97
2018-07-17T17:56:07.596Z,9.20
2018-07-17T17:58:35.926Z,10.53
2018-07-17T18:01:04.243Z,10.83
2018-07-17T18:03:32.556Z,6.67
2018-07-17T18:06:00.881Z,6.10
2018-07-17T18:08:29.315Z,5.87
2018-07-17T18:10:57.607Z,6.50
2018-07-17T18:13:25.926Z,11.77
2018-07-17T18:15:54.224Z,5.67
2018-07-17T18:18:22.599Z,6.53
2018-07-17T18:20:50.964Z,13.63
2018-07-17T18:23:19.277Z,12.17
2018-07-17T18:25:48.059Z,9.57
2018-07-17T18:28:16.668Z,4.67
2018-07-17T18:30:45.186Z,9.37
2018-07-17T18:33:13.486Z,8.67
2018-07-17T18:35:41.811Z,6.37
2018-07-17T18:38:10.109Z,5.47
2018-07-17T18:40:38.467Z,11.00
2018-07-17T18:43:06.760Z,6.73
2018-07-17T18:45:35.319Z,14.03
2018-07-17T18:48:03.710Z,12.90
2018-07-17T18:50:32.084Z,8.70
2018-07-17T18:53:00.401Z,9.60
2018-07-17T18:55:28.796Z,8.83
2018-07-17T18:57:57.298Z,6.07
2018-07-17T19:00:25.607Z,5.50
2018-07-17T19:02:53.880Z,4.83
2018-07-17T19:05:22.207Z,7.07
2018-07-17T19:07:50.551Z,7.17
2018-07-17T19:10:18.888Z,11.40
2018-07-17T19:12:47.267Z,9.07
2018-07-17T19:15:15.670Z,7.63
2018-07-17T19:17:43.959Z,7.90
2018-07-17T19:20:12.036Z,5.90
2018-07-17T19:22:40.579Z,7.27
2018-07-17T19:25:08.888Z,5.90
2018-07-17T19:27:37.178Z,5.87
2018-07-17T19:30:08.300Z,11.27
2018-07-17T19:32:36.851Z,10.00
2018-07-17T19:35:05.354Z,9.27
2018-07-17T19:37:33.933Z,7.77
2018-07-17T19:40:02.497Z,8.07
2018-07-17T19:42:31.258Z,6.30
2018-07-17T19:44:59.567Z,7.63
2018-07-17T19:47:27.940Z,8.07
2018-07-17T19:49:56.193Z,5.93
2018-07-17T19:52:24.522Z,5.40
2018-07-17T19:54:52.571Z,5.23
2018-07-17T19:57:20.893Z,6.43
2018-07-17T19:59:49.202Z,3.67
2018-07-17T20:02:17.550Z,5.30
2018-07-17T20:04:45.728Z,5.90
2018-07-17T20:07:13.855Z,4.97
2018-07-17T20:09:42.207Z,4.87
2018-07-17T20:12:10.540Z,9.10
2018-07-17T20:14:38.876Z,5.00
2018-07-17T20:17:07.182Z,7.27
2018-07-17T20:19:35.724Z,10.37
2018-07-17T20:22:04.057Z,5.97
2018-07-17T20:24:32.397Z,9.57
2018-07-17T20:27:00.734Z,5.13
2018-07-17T20:29:29.214Z,5.40
2018-07-17T20:31:57.509Z,5.83
2018-07-17T20:34:26.064Z,8.93
2018-07-17T20:36:54.585Z,6.90
2018-07-17T20:39:23.157Z,5.43
2018-07-17T20:41:51.639Z,4.90
2018-07-17T20:44:20.235Z,4.63
2018-07-17T20:46:48.567Z,5.17
2018-07-17T20:49:16.882Z,5.17
2018-07-17T20:51:45.223Z,4.60
2018-07-17T20:54:13.883Z,5.87
2018-07-17T20:56:42.224Z,5.40
2018-07-17T20:59:10.628Z,4.20
2018-07-17T21:01:38.924Z,3.00
2018-07-17T21:04:07.003Z,4.63
2018-07-17T21:06:35.318Z,4.97
2018-07-17T21:09:03.851Z,13.63
2018-07-17T21:11:32.396Z,4.90
2018-07-17T21:14:00.710Z,3.87
2018-07-17T21:16:29.023Z,5.20
2018-07-17T21:18:57.303Z,4.97
2018-07-17T21:21:25.626Z,5.40
2018-07-17T21:23:53.935Z,4.40
2018-07-17T21:26:22.269Z,5.03
2018-07-17T21:28:50.574Z,3.87
2018-07-17T21:31:18.874Z,5.03
2018-07-17T21:33:47.207Z,3.10
2018-07-17T21:36:15.510Z,5.37
2018-07-17T21:38:43.820Z,4.70
2018-07-17T21:41:12.136Z,4.27
2018-07-17T21:43:40.435Z,5.23
2018-07-17T21:46:08.499Z,3.63
2018-07-17T21:48:36.774Z,4.90
2018-07-17T21:51:05.091Z,6.27
2018-07-17T21:53:33.408Z,4.03
2018-07-17T21:56:01.730Z,4.63
2018-07-17T21:58:30.019Z,4.70
2018-07-17T22:00:58.444Z,3.67
2018-07-17T22:03:26.748Z,5.03
2018-07-17T22:05:55.089Z,3.60
2018-07-17T22:08:23.491Z,4.03
2018-07-17T22:10:52.112Z,3.10
2018-07-17T22:13:20.526Z,4.80
2018-07-17T22:15:48.874Z,4.27
2018-07-17T22:18:17.240Z,5.40
2018-07-17T22:20:45.549Z,4.53
2018-07-17T22:23:13.830Z,4.40
2018-07-17T22:25:42.167Z,4.37
2018-07-17T22:28:10.620Z,5.47
2018-07-17T22:30:38.911Z,5.43
2018-07-17T22:33:07.235Z,4.57
2018-07-17T22:35:35.575Z,3.37
2018-07-17T22:38:04.041Z,3.47
2018-07-17T22:40:32.375Z,3.73
2018-07-17T22:43:00.689Z,6.40
2018-07-17T22:45:28.983Z,6.10
2018-07-17T22:47:57.250Z,4.63
2018-07-17T22:50:25.591Z,7.33
2018-07-17T22:52:54.128Z,4.93
2018-07-17T22:55:22.455Z,4.53
2018-07-17T22:57:50.743Z,5.43
2018-07-17T23:00:19.028Z,4.63
2018-07-17T23:02:47.323Z,5.93
2018-07-17T23:05:15.637Z,7.00
2018-07-17T23:07:43.905Z,12.13
2018-07-17T23:10:12.204Z,55.10
2018-07-17T23:12:40.579Z,72.47
2018-07-17T23:18:00.168Z,55.80
2018-07-17T23:20:28.463Z,50.30
2018-07-17T23:22:57.881Z,51.77
2018-07-17T23:25:27.421Z,43.73
2018-07-17T23:27:56.503Z,49.07
2018-07-17T23:30:24.813Z,45.83
2018-07-17T23:32:53.370Z,43.97
2018-07-17T23:35:22.648Z,41.13
2018-07-17T23:37:51.662Z,37.23
2018-07-17T23:40:20.432Z,36.63
2018-07-17T23:42:49.050Z,29.53
2018-07-17T23:45:17.815Z,33.27
2018-07-17T23:47:46.956Z,31.33
2018-07-17T23:50:15.270Z,29.57
2018-07-17T23:52:43.596Z,30.40
2018-07-17T23:55:11.910Z,26.83
2018-07-17T23:57:40.241Z,26.73
